Time;durP1;ratioP1;P1;durP2;ratioP2;P2;SDS_P1;SDS_P2;PMS_P1;PMS_P2;Temp;Humidity;BMP_temperature;BMP_pressure;BME280_temperature;BME280_humidity;BME280_pressure;Samples;Min_cycle;Max_cycle;Signal;HPM_P1;HPM_P2
2023/12/26 00:00:38;;;;;;;2.93;1.30;;;11.40;99.90;;;;;;4192531;28;20025;-61
2023/12/26 00:02:39;;;;;;;3.07;1.20;;;11.40;99.90;;;;;;4192626;28;20121;-60
2023/12/26 00:04:40;;;;;;;1.30;1.03;;;11.40;99.90;;;;;;4191420;28;20037;-61
2023/12/26 00:06:44;;;;;;;2.60;0.83;;;11.40;99.90;;;;;;4195688;28;20041;-60
2023/12/26 00:08:46;;;;;;;1.40;0.73;;;11.40;99.90;;;;;;4195894;28;20075;-60
2023/12/26 00:10:47;;;;;;;2.23;1.40;;;11.40;99.90;;;;;;4196651;28;20477;-60
2023/12/26 00:12:49;;;;;;;1.33;0.83;;;11.40;99.90;;;;;;4195925;28;20016;-60
2023/12/26 00:14:50;;;;;;;1.90;1.20;;;11.40;99.90;;;;;;4196444;28;20726;-59
2023/12/26 00:16:52;;;;;;;3.53;1.50;;;11.30;99.90;;;;;;4195536;28;20109;-60
2023/12/26 00:18:53;;;;;;;4.70;1.20;;;11.20;99.90;;;;;;4195624;28;20566;-61
2023/12/26 00:20:54;;;;;;;1.43;1.33;;;11.20;99.90;;;;;;4194514;28;20087;-60
2023/12/26 00:22:55;;;;;;;3.40;0.77;;;11.20;99.90;;;;;;4195958;28;20054;-61
2023/12/26 00:24:57;;;;;;;1.50;1.10;;;11.30;99.90;;;;;;4194824;28;20641;-61
2023/12/26 00:26:58;;;;;;;3.40;1.60;;;11.30;99.90;;;;;;4194933;28;20079;-60
2023/12/26 00:28:59;;;;;;;2.40;1.00;;;11.10;99.90;;;;;;4195692;28;20037;-60
2023/12/26 00:31:01;;;;;;;1.53;0.67;;;11.00;99.90;;;;;;4194342;28;20054;-58
2023/12/26 00:33:02;;;;;;;3.30;1.20;;;11.00;99.90;;;;;;4195617;28;20485;-61
2023/12/26 00:35:04;;;;;;;2.27;1.03;;;11.00;99.90;;;;;;4194358;28;20447;-60
2023/12/26 00:37:05;;;;;;;2.93;0.80;;;10.90;99.90;;;;;;4195482;28;20177;-59
2023/12/26 00:39:07;;;;;;;2.57;0.90;;;10.80;99.90;;;;;;4195290;28;20020;-61
2023/12/26 00:41:08;;;;;;;2.07;1.10;;;10.80;99.90;;;;;;4195823;28;20025;-61
2023/12/26 00:43:09;;;;;;;3.83;1.70;;;10.70;99.90;;;;;;4194236;28;20044;-59
2023/12/26 00:45:10;;;;;;;2.63;0.97;;;10.70;99.90;;;;;;4195224;28;20033;-61
2023/12/26 00:47:11;;;;;;;1.60;1.40;;;10.70;99.90;;;;;;4193834;28;20032;-61
2023/12/26 00:49:13;;;;;;;2.83;1.37;;;10.70;99.90;;;;;;4194532;28;20040;-60
2023/12/26 00:51:14;;;;;;;2.83;1.13;;;10.60;99.90;;;;;;4195146;28;20032;-60
2023/12/26 00:53:15;;;;;;;3.10;0.97;;;10.50;99.90;;;;;;4195506;28;20032;-60
2023/12/26 00:55:16;;;;;;;2.07;1.23;;;10.50;99.90;;;;;;4194929;28;20545;-61
2023/12/26 00:57:18;;;;;;;2.17;1.37;;;10.50;99.90;;;;;;4194773;28;20497;-59
2023/12/26 00:59:19;;;;;;;2.43;1.30;;;10.40;99.90;;;;;;4195022;28;20513;-61
2023/12/26 01:01:21;;;;;;;3.43;1.13;;;10.40;99.90;;;;;;4194955;28;20086;-60
2023/12/26 01:03:22;;;;;;;2.07;1.80;;;10.40;99.90;;;;;;4194052;28;20102;-60
2023/12/26 01:05:23;;;;;;;3.17;1.70;;;10.40;99.90;;;;;;4194859;28;20050;-58
2023/12/26 01:07:24;;;;;;;2.50;1.40;;;10.30;99.90;;;;;;4194687;28;20090;-60
2023/12/26 01:09:25;;;;;;;2.50;1.30;;;10.20;99.90;;;;;;4194447;28;20085;-60
2023/12/26 01:11:27;;;;;;;4.57;1.47;;;10.10;99.90;;;;;;4195290;28;20032;-60
2023/12/26 01:13:34;;;;;;;3.17;1.40;;;9.80;99.90;;;;;;4194551;28;20044;-60
2023/12/26 01:15:35;;;;;;;4.50;2.07;;;9.60;99.90;;;;;;4195054;28;20166;-59
2023/12/26 01:17:36;;;;;;;2.57;1.30;;;9.50;99.90;;;;;;4192602;28;20446;-62
2023/12/26 01:19:38;;;;;;;1.37;1.00;;;9.30;99.90;;;;;;4195185;28;20041;-61
2023/12/26 01:21:40;;;;;;;2.10;1.03;;;9.30;99.90;;;;;;4193915;28;20086;-61
2023/12/26 01:23:42;;;;;;;2.40;1.13;;;9.20;99.90;;;;;;4195110;28;20074;-61
2023/12/26 01:25:43;;;;;;;6.40;3.33;;;9.10;99.90;;;;;;4194119;28;20033;-60
2023/12/26 01:27:44;;;;;;;5.67;2.37;;;9.00;99.90;;;;;;4194806;28;20114;-61
2023/12/26 01:29:46;;;;;;;4.90;2.43;;;8.90;99.90;;;;;;4194579;28;20020;-60
2023/12/26 01:31:47;;;;;;;2.93;1.30;;;8.80;99.90;;;;;;4194510;28;20438;-60
2023/12/26 01:33:49;;;;;;;2.80;1.50;;;8.80;99.90;;;;;;4194624;28;20492;-60
2023/12/26 01:35:50;;;;;;;4.17;1.77;;;8.80;99.90;;;;;;4193770;28;20090;-62
2023/12/26 01:37:53;;;;;;;3.20;1.93;;;8.80;99.90;;;;;;4194123;28;20093;-59
2023/12/26 01:39:54;;;;;;;3.53;2.00;;;8.80;99.90;;;;;;4193680;28;20048;-61
2023/12/26 01:41:55;;;;;;;4.70;2.53;;;8.80;99.90;;;;;;4193339;28;20118;-60
2023/12/26 01:43:56;;;;;;;3.07;2.30;;;8.70;99.90;;;;;;4193975;28;20086;-61
2023/12/26 01:45:58;;;;;;;2.87;1.90;;;8.60;99.90;;;;;;4194630;28;20485;-62
2023/12/26 01:48:00;;;;;;;8.50;2.77;;;8.50;99.90;;;;;;4192978;28;20036;-61
2023/12/26 01:50:02;;;;;;;4.07;1.80;;;8.50;99.90;;;;;;4194941;28;20074;-61
2023/12/26 01:52:06;;;;;;;4.80;2.20;;;8.40;99.90;;;;;;4193952;28;20066;-61
2023/12/26 01:54:08;;;;;;;5.30;3.30;;;8.40;99.90;;;;;;4194256;28;20450;-61
2023/12/26 01:56:14;;;;;;;4.53;2.90;;;8.30;99.90;;;;;;4193771;28;20044;-60
2023/12/26 01:58:16;;;;;;;3.50;1.53;;;8.30;99.90;;;;;;4193841;28;20109;-60
2023/12/26 02:00:18;;;;;;;3.43;1.70;;;8.30;99.90;;;;;;4193434;28;20082;-60
2023/12/26 02:02:19;;;;;;;3.07;1.67;;;8.30;99.90;;;;;;4194121;28;20025;-61
2023/12/26 02:04:21;;;;;;;4.43;2.17;;;8.30;99.90;;;;;;4193712;28;20090;-61
2023/12/26 02:06:22;;;;;;;4.73;2.63;;;8.30;99.90;;;;;;4194165;28;20090;-60
2023/12/26 02:08:24;;;;;;;4.80;2.17;;;8.30;99.90;;;;;;4193886;28;20144;-59
2023/12/26 02:10:25;;;;;;;2.60;1.70;;;8.20;99.90;;;;;;4193354;28;20024;-60
2023/12/26 02:12:27;;;;;;;3.57;2.63;;;8.20;99.90;;;;;;4194709;28;20431;-61
2023/12/26 02:14:28;;;;;;;5.83;2.37;;;8.20;99.90;;;;;;4193665;28;20028;-61
2023/12/26 02:16:30;;;;;;;2.70;1.70;;;8.20;99.90;;;;;;4194326;28;20374;-61
2023/12/26 02:18:31;;;;;;;2.10;1.67;;;8.20;99.90;;;;;;4193197;28;20110;-61
2023/12/26 02:20:32;;;;;;;2.90;1.83;;;8.20;99.90;;;;;;4194347;28;20549;-60
2023/12/26 02:22:34;;;;;;;4.00;2.10;;;8.30;99.90;;;;;;4192921;28;20082;-60
2023/12/26 02:24:36;;;;;;;3.80;2.73;;;8.30;99.90;;;;;;4193442;28;20028;-60
2023/12/26 02:26:39;;;;;;;3.33;2.13;;;8.30;99.90;;;;;;4193039;28;20032;-60
2023/12/26 02:28:41;;;;;;;6.57;2.30;;;8.30;99.90;;;;;;4193202;28;20558;-59
2023/12/26 02:30:44;;;;;;;2.73;2.10;;;8.30;99.90;;;;;;4192623;28;20028;-61
2023/12/26 02:32:46;;;;;;;4.80;2.00;;;8.30;99.90;;;;;;4193829;28;20090;-61
2023/12/26 02:34:50;;;;;;;5.03;2.27;;;8.30;99.90;;;;;;4191352;28;20090;-61
2023/12/26 02:36:51;;;;;;;5.63;2.60;;;8.30;99.90;;;;;;4191642;28;20390;-60
2023/12/26 02:38:53;;;;;;;4.20;2.33;;;8.30;99.90;;;;;;4192845;28;20025;-61
2023/12/26 02:40:54;;;;;;;12.47;2.63;;;8.30;99.90;;;;;;4193624;28;20020;-60
2023/12/26 02:42:55;;;;;;;2.87;2.50;;;8.30;99.90;;;;;;4193822;28;20048;-60
2023/12/26 02:44:57;;;;;;;4.27;2.47;;;8.20;99.90;;;;;;4192961;28;20106;-60
2023/12/26 02:46:58;;;;;;;2.67;2.40;;;8.20;99.90;;;;;;4193480;28;20028;-61
2023/12/26 02:49:00;;;;;;;6.47;2.70;;;8.20;99.90;;;;;;4192464;28;20041;-60
2023/12/26 02:51:02;;;;;;;3.70;2.40;;;8.20;99.90;;;;;;4193294;28;20044;-60
2023/12/26 02:53:04;;;;;;;4.03;2.00;;;8.10;99.90;;;;;;4192249;28;20045;-60
2023/12/26 02:55:05;;;;;;;3.77;2.80;;;8.20;99.90;;;;;;4193511;28;20401;-59
2023/12/26 02:57:06;;;;;;;6.67;3.03;;;8.20;99.90;;;;;;4192035;28;20094;-61
2023/12/26 02:59:07;;;;;;;5.50;3.23;;;8.20;99.90;;;;;;4193600;28;20078;-60
2023/12/26 03:01:09;;;;;;;4.13;3.30;;;8.20;99.90;;;;;;4192570;28;20102;-60
2023/12/26 03:03:10;;;;;;;6.90;3.40;;;8.20;99.90;;;;;;4191645;28;20102;-60
2023/12/26 03:05:11;;;;;;;4.83;3.03;;;8.10;99.90;;;;;;4193078;28;20074;-60
2023/12/26 03:07:12;;;;;;;4.70;2.80;;;8.00;99.90;;;;;;4192435;28;20098;-61
2023/12/26 03:09:13;;;;;;;4.70;3.27;;;8.00;99.90;;;;;;4192307;28;20362;-60
2023/12/26 03:11:15;;;;;;;8.17;3.37;;;8.00;99.90;;;;;;4192654;28;20121;-61
2023/12/26 03:13:16;;;;;;;6.97;3.70;;;8.00;99.90;;;;;;4193540;28;20415;-60
2023/12/26 03:15:17;;;;;;;4.60;3.63;;;8.10;99.90;;;;;;4192476;28;20102;-60
2023/12/26 03:17:18;;;;;;;6.33;4.10;;;8.00;99.90;;;;;;4192419;28;20048;-61
2023/12/26 03:19:20;;;;;;;5.43;3.13;;;8.10;99.90;;;;;;4192023;28;20089;-60
2023/12/26 03:21:21;;;;;;;11.07;4.37;;;8.00;99.90;;;;;;4193393;28;20098;-61
2023/12/26 03:23:22;;;;;;;6.27;3.63;;;8.00;99.90;;;;;;4192589;28;20479;-60
2023/12/26 03:25:23;;;;;;;6.03;3.87;;;8.00;99.90;;;;;;4192958;28;20037;-61
2023/12/26 03:27:24;;;;;;;8.40;4.93;;;8.00;99.90;;;;;;4192616;28;20419;-61
2023/12/26 03:29:26;;;;;;;7.27;4.20;;;8.00;99.90;;;;;;4192699;28;20106;-61
2023/12/26 03:31:27;;;;;;;6.10;4.10;;;8.00;99.90;;;;;;4192045;28;20086;-61
2023/12/26 03:33:28;;;;;;;5.57;3.30;;;8.00;99.90;;;;;;4193125;28;20075;-60
2023/12/26 03:35:30;;;;;;;6.93;3.47;;;7.90;99.90;;;;;;4192657;28;20033;-61
2023/12/26 03:37:31;;;;;;;7.00;4.03;;;7.90;99.90;;;;;;4192450;28;20467;-59
2023/12/26 03:39:32;;;;;;;5.33;3.80;;;7.90;99.90;;;;;;4192485;28;20037;-61
2023/12/26 03:41:36;;;;;;;10.23;4.40;;;7.90;99.90;;;;;;4192069;28;20081;-61
2023/12/26 03:43:37;;;;;;;8.13;4.23;;;8.00;99.90;;;;;;4192613;28;20048;-60
2023/12/26 03:45:38;;;;;;;10.40;4.87;;;8.00;99.90;;;;;;4191833;28;20037;-61
2023/12/26 03:47:40;;;;;;;10.53;5.27;;;8.00;99.90;;;;;;4192782;28;20533;-60
2023/12/26 03:49:41;;;;;;;8.80;4.47;;;8.00;99.90;;;;;;4192257;28;20435;-60
2023/12/26 03:51:44;;;;;;;10.57;4.77;;;8.10;99.90;;;;;;4192951;28;20074;-61
2023/12/26 03:53:46;;;;;;;7.43;4.60;;;8.00;99.90;;;;;;4191619;28;20048;-61
2023/12/26 03:55:47;;;;;;;6.13;4.07;;;8.00;99.90;;;;;;4192821;28;20097;-60
2023/12/26 03:57:48;;;;;;;7.67;4.17;;;8.00;99.90;;;;;;4192097;28;20033;-60
2023/12/26 03:59:50;;;;;;;15.40;6.83;;;8.00;99.90;;;;;;4192030;28;20094;-60
2023/12/26 04:01:51;;;;;;;11.07;7.03;;;8.00;99.90;;;;;;4192154;28;20477;-61
2023/12/26 04:03:53;;;;;;;8.93;5.60;;;8.00;99.90;;;;;;4192712;28;20097;-60
2023/12/26 04:05:55;;;;;;;8.87;5.40;;;8.00;99.90;;;;;;4192384;28;20439;-59
2023/12/26 04:07:56;;;;;;;11.63;7.17;;;7.90;99.90;;;;;;4192771;28;20476;-61
2023/12/26 04:09:58;;;;;;;11.60;7.33;;;7.80;99.90;;;;;;4191938;28;20082;-60
2023/12/26 04:11:59;;;;;;;13.50;7.03;;;7.80;99.90;;;;;;4192049;28;20086;-60
2023/12/26 04:14:00;;;;;;;12.50;6.33;;;7.80;99.90;;;;;;4192915;28;20430;-61
2023/12/26 04:16:02;;;;;;;8.03;5.07;;;7.70;99.90;;;;;;4192010;28;20032;-61
2023/12/26 04:18:03;;;;;;;10.27;5.93;;;7.70;99.90;;;;;;4192085;28;20098;-60
2023/12/26 04:20:05;;;;;;;9.50;5.90;;;7.70;99.90;;;;;;4192183;28;20036;-60
2023/12/26 04:22:06;;;;;;;11.23;6.27;;;7.70;99.90;;;;;;4191996;28;20381;-61
2023/12/26 04:24:07;;;;;;;11.43;6.40;;;7.70;99.90;;;;;;4191412;28;20190;-60
2023/12/26 04:26:08;;;;;;;11.70;6.90;;;7.70;99.90;;;;;;4192463;28;20435;-60
2023/12/26 04:28:10;;;;;;;10.40;5.40;;;7.70;99.90;;;;;;4191574;28;20090;-60
2023/12/26 04:30:12;;;;;;;7.33;5.13;;;7.80;99.90;;;;;;4192192;28;20489;-61
2023/12/26 04:32:13;;;;;;;8.27;4.30;;;7.80;99.90;;;;;;4191835;28;20029;-59
2023/12/26 04:34:14;;;;;;;6.93;3.60;;;7.80;99.90;;;;;;4192775;28;20138;-60
2023/12/26 04:36:15;;;;;;;5.97;3.50;;;7.80;99.90;;;;;;4191714;28;20036;-60
2023/12/26 04:38:16;;;;;;;5.80;3.07;;;7.70;99.90;;;;;;4192419;28;20102;-60
2023/12/26 04:40:17;;;;;;;4.07;2.77;;;7.70;99.90;;;;;;4192293;28;20435;-60
2023/12/26 04:42:19;;;;;;;3.23;2.50;;;7.70;99.90;;;;;;4190318;28;20443;-60
2023/12/26 04:44:20;;;;;;;5.47;2.60;;;7.70;99.90;;;;;;4191597;28;20488;-59
2023/12/26 04:46:21;;;;;;;5.97;3.27;;;7.70;99.90;;;;;;4192189;28;20055;-60
2023/12/26 04:48:22;;;;;;;6.90;3.40;;;7.70;99.90;;;;;;4191740;28;20089;-57
2023/12/26 04:50:23;;;;;;;5.80;3.93;;;7.70;99.90;;;;;;4191328;28;20300;-60
2023/12/26 04:52:24;;;;;;;8.73;3.50;;;7.60;99.90;;;;;;4192883;28;20097;-60
2023/12/26 04:54:26;;;;;;;7.17;3.70;;;7.50;99.90;;;;;;4194665;28;20033;-62
2023/12/26 04:56:27;;;;;;;6.17;4.13;;;7.50;99.90;;;;;;4195508;28;20036;-60
2023/12/26 04:58:28;;;;;;;8.80;4.73;;;7.40;99.90;;;;;;4194023;28;20503;-60
2023/12/26 05:00:29;;;;;;;8.43;5.10;;;7.40;99.90;;;;;;4194989;28;20098;-61
2023/12/26 05:02:30;;;;;;;7.97;4.93;;;7.30;99.90;;;;;;4193784;28;20032;-60
2023/12/26 05:04:32;;;;;;;8.43;4.57;;;7.30;99.90;;;;;;4194799;28;20102;-62
2023/12/26 05:06:33;;;;;;;8.00;5.20;;;7.30;99.90;;;;;;4194802;28;20165;-61
2023/12/26 05:08:37;;;;;;;9.97;4.93;;;7.30;99.90;;;;;;4194839;28;20082;-62
2023/12/26 05:10:38;;;;;;;6.23;4.40;;;7.30;99.90;;;;;;4194319;28;20032;-60
2023/12/26 05:12:39;;;;;;;7.23;4.40;;;7.30;99.90;;;;;;4195629;28;20169;-61
2023/12/26 05:14:40;;;;;;;4.73;3.37;;;7.20;99.90;;;;;;4195238;28;20036;-61
2023/12/26 05:16:42;;;;;;;5.37;3.83;;;7.20;99.90;;;;;;4195048;28;20078;-61
2023/12/26 05:18:43;;;;;;;6.37;4.03;;;7.20;99.90;;;;;;4194708;28;20044;-61
2023/12/26 05:20:44;;;;;;;7.93;3.60;;;7.20;99.90;;;;;;4193897;28;20044;-61
2023/12/26 05:22:46;;;;;;;4.60;3.50;;;7.30;99.90;;;;;;4194944;28;20028;-61
2023/12/26 05:24:47;;;;;;;4.70;3.20;;;7.30;99.90;;;;;;4194451;28;20102;-60
2023/12/26 05:26:48;;;;;;;9.17;4.47;;;7.30;99.90;;;;;;4195132;28;20067;-61
2023/12/26 05:28:50;;;;;;;6.00;3.60;;;7.40;99.90;;;;;;4193650;28;20451;-61
2023/12/26 05:30:51;;;;;;;8.63;4.80;;;7.40;99.90;;;;;;4194729;28;20082;-60
2023/12/26 05:32:52;;;;;;;9.30;3.60;;;7.30;99.90;;;;;;4193699;28;20048;-61
2023/12/26 05:34:55;;;;;;;9.27;5.33;;;7.30;99.90;;;;;;4195000;28;20082;-60
2023/12/26 05:36:57;;;;;;;7.73;5.50;;;7.30;99.90;;;;;;4194324;28;20123;-60
2023/12/26 05:38:59;;;;;;;8.00;5.23;;;7.20;99.90;;;;;;4194239;28;20056;-60
2023/12/26 05:41:04;;;;;;;9.23;5.43;;;7.20;99.90;;;;;;4193542;28;20045;-60
2023/12/26 05:43:05;;;;;;;8.33;5.03;;;7.20;99.90;;;;;;4194974;28;20024;-61
2023/12/26 05:45:06;;;;;;;10.13;4.53;;;7.10;99.90;;;;;;4194286;28;20032;-60
2023/12/26 05:47:08;;;;;;;9.50;4.67;;;7.10;99.90;;;;;;4194232;28;20041;-60
2023/12/26 05:49:09;;;;;;;8.87;5.30;;;7.10;99.90;;;;;;4194137;28;20040;-61
2023/12/26 05:51:10;;;;;;;8.33;5.00;;;7.10;99.90;;;;;;4194046;28;20419;-59
2023/12/26 05:53:11;;;;;;;8.97;5.07;;;7.10;99.90;;;;;;4193897;28;20028;-61
2023/12/26 05:55:13;;;;;;;11.97;5.83;;;7.00;99.90;;;;;;4194135;28;20020;-60
2023/12/26 05:57:14;;;;;;;11.20;7.03;;;7.00;99.90;;;;;;4193397;28;20073;-59
2023/12/26 05:59:15;;;;;;;14.30;7.20;;;7.00;99.90;;;;;;4193745;28;20472;-60
2023/12/26 06:01:17;;;;;;;12.47;6.87;;;7.00;99.90;;;;;;4194180;28;20094;-59
2023/12/26 06:03:18;;;;;;;10.63;5.97;;;6.90;99.90;;;;;;4192689;28;20070;-61
2023/12/26 06:05:20;;;;;;;9.07;5.30;;;6.90;99.90;;;;;;4193943;28;20089;-60
2023/12/26 06:07:21;;;;;;;10.47;5.57;;;6.80;99.90;;;;;;4193315;28;20040;-60
2023/12/26 06:09:22;;;;;;;10.53;6.73;;;6.70;99.90;;;;;;4193951;28;20040;-60
2023/12/26 06:11:23;;;;;;;10.93;6.43;;;6.70;99.90;;;;;;4193664;28;20090;-57
2023/12/26 06:13:25;;;;;;;11.87;6.20;;;6.60;99.90;;;;;;4194669;28;20040;-59
2023/12/26 06:15:26;;;;;;;12.97;6.40;;;6.60;99.90;;;;;;4193348;28;20086;-60
2023/12/26 06:17:29;;;;;;;10.33;6.57;;;6.60;99.90;;;;;;4193660;28;20033;-59
2023/12/26 06:19:30;;;;;;;12.60;6.70;;;6.60;99.90;;;;;;4192981;28;20054;-59
2023/12/26 06:21:31;;;;;;;14.53;7.90;;;6.60;99.90;;;;;;4193236;28;20094;-60
2023/12/26 06:23:32;;;;;;;11.47;6.80;;;6.60;99.90;;;;;;4193414;28;21488;-60
2023/12/26 06:25:34;;;;;;;13.70;7.20;;;6.60;99.90;;;;;;4193514;28;20025;-60
2023/12/26 06:27:36;;;;;;;14.10;6.83;;;6.70;99.90;;;;;;4193953;28;20149;-60
2023/12/26 06:29:37;;;;;;;13.57;7.37;;;6.80;99.90;;;;;;4192530;28;20028;-60
2023/12/26 06:31:38;;;;;;;12.07;6.73;;;6.90;99.90;;;;;;4193561;28;20048;-60
2023/12/26 06:33:40;;;;;;;11.03;6.93;;;7.10;99.90;;;;;;4193115;28;20032;-61
2023/12/26 06:35:41;;;;;;;14.07;6.63;;;7.30;99.90;;;;;;4193277;28;20117;-62
2023/12/26 06:37:42;;;;;;;9.83;6.93;;;7.70;99.90;;;;;;4192301;28;20032;-60
2023/12/26 06:39:44;;;;;;;10.97;6.70;;;8.00;99.90;;;;;;4193544;28;20098;-61
2023/12/26 06:41:45;;;;;;;12.33;6.40;;;8.20;99.90;;;;;;4192498;28;20107;-60
2023/12/26 06:43:46;;;;;;;12.57;7.30;;;8.20;99.90;;;;;;4193608;28;20040;-61
2023/12/26 06:45:47;;;;;;;12.30;7.17;;;8.30;99.90;;;;;;4192804;28;20048;-58
2023/12/26 06:47:49;;;;;;;12.07;7.00;;;8.40;99.90;;;;;;4193070;28;20045;-61
2023/12/26 06:49:53;;;;;;;9.40;5.73;;;8.70;99.90;;;;;;4192835;28;20070;-60
2023/12/26 06:51:54;;;;;;;11.63;6.50;;;9.00;99.90;;;;;;4192918;28;20181;-61
2023/12/26 06:53:55;;;;;;;10.47;6.07;;;9.20;99.90;;;;;;4193484;28;20021;-61
2023/12/26 06:55:56;;;;;;;13.00;6.33;;;9.60;99.90;;;;;;4192487;28;20036;-59
2023/12/26 06:57:58;;;;;;;8.70;6.33;;;10.00;99.90;;;;;;4193526;28;20490;-60
2023/12/26 06:59:59;;;;;;;10.50;6.03;;;10.50;99.90;;;;;;4192727;28;20625;-61
2023/12/26 07:02:00;;;;;;;10.83;6.60;;;10.80;99.90;;;;;;4193111;28;20040;-62
2023/12/26 07:04:01;;;;;;;9.43;6.23;;;11.00;99.90;;;;;;4192174;28;20044;-60
2023/12/26 07:06:03;;;;;;;10.73;7.00;;;11.20;99.90;;;;;;4192942;28;20098;-59
2023/12/26 07:08:04;;;;;;;8.97;6.57;;;11.40;99.90;;;;;;4191813;28;20327;-61
2023/12/26 07:10:06;;;;;;;9.02;6.18;;;11.50;99.90;;;;;;4193348;28;20421;-61
2023/12/26 07:12:07;;;;;;;11.38;6.50;;;11.40;99.90;;;;;;4191721;28;20033;-60
2023/12/26 07:14:08;;;;;;;10.68;7.05;;;10.90;99.90;;;;;;4193525;28;20025;-61
2023/12/26 07:16:10;;;;;;;9.17;6.23;;;10.30;99.90;;;;;;4191689;28;20032;-61
2023/12/26 07:18:12;;;;;;;11.23;7.00;;;10.00;99.90;;;;;;4192428;28;20431;-59
2023/12/26 07:20:13;;;;;;;10.95;7.82;;;9.80;99.90;;;;;;4191939;28;20800;-60
2023/12/26 07:22:14;;;;;;;11.47;7.90;;;9.50;99.90;;;;;;4192661;28;20074;-60
2023/12/26 07:24:15;;;;;;;15.63;8.00;;;9.40;99.90;;;;;;4192455;28;20044;-61
2023/12/26 07:26:17;;;;;;;15.80;9.03;;;9.60;99.90;;;;;;4192469;28;20437;-61
2023/12/26 07:28:18;;;;;;;13.37;7.77;;;9.90;99.90;;;;;;4192595;28;20153;-60
2023/12/26 07:30:19;;;;;;;12.23;7.90;;;10.20;99.90;;;;;;4191845;28;20032;-60
2023/12/26 07:32:20;;;;;;;14.17;9.23;;;10.50;99.90;;;;;;4193191;28;20021;-61
2023/12/26 07:34:21;;;;;;;12.77;8.57;;;10.70;99.90;;;;;;4192294;28;20070;-61
2023/12/26 07:36:23;;;;;;;11.60;7.23;;;11.10;99.90;;;;;;4192710;28;20534;-61
2023/12/26 07:38:25;;;;;;;9.88;7.38;;;11.30;99.90;;;;;;4191987;28;20079;-61
2023/12/26 07:40:26;;;;;;;11.70;8.88;;;11.50;99.90;;;;;;4192689;28;20041;-61
2023/12/26 07:42:27;;;;;;;16.08;10.02;;;11.50;99.90;;;;;;4192217;28;20028;-62
2023/12/26 07:44:28;;;;;;;19.73;12.55;;;11.40;99.90;;;;;;4193223;28;20366;-59
2023/12/26 07:46:29;;;;;;;19.58;11.68;;;11.10;99.90;;;;;;4192196;28;20040;-61
2023/12/26 07:48:31;;;;;;;18.85;11.68;;;10.90;99.90;;;;;;4192803;28;20090;-61
2023/12/26 07:50:32;;;;;;;18.40;11.57;;;10.80;99.90;;;;;;4191887;28;20048;-60
2023/12/26 07:52:33;;;;;;;14.48;10.55;;;10.80;99.90;;;;;;4192493;28;20097;-60
2023/12/26 07:54:35;;;;;;;14.27;9.30;;;10.70;99.90;;;;;;4192646;28;20465;-60
2023/12/26 07:56:36;;;;;;;17.67;11.57;;;10.40;99.90;;;;;;4191139;28;20024;-60
2023/12/26 07:58:38;;;;;;;18.63;11.43;;;10.20;99.90;;;;;;4192499;28;20102;-60
2023/12/26 08:00:39;;;;;;;14.57;10.43;;;9.90;99.90;;;;;;4192202;28;20154;-60
2023/12/26 08:02:40;;;;;;;14.30;9.40;;;9.70;99.90;;;;;;4192119;28;20082;-60
2023/12/26 08:04:41;;;;;;;12.23;9.03;;;9.70;99.90;;;;;;4191546;28;20088;-61
2023/12/26 08:06:42;;;;;;;11.60;8.87;;;9.90;99.90;;;;;;4192568;28;20044;-60
2023/12/26 08:08:44;;;;;;;12.97;8.53;;;9.90;99.90;;;;;;4191451;28;20125;-62
2023/12/26 08:10:47;;;;;;;11.03;8.10;;;10.10;99.90;;;;;;4192490;28;20032;-61
2023/12/26 08:12:48;;;;;;;12.00;8.40;;;10.60;99.90;;;;;;4191582;28;20056;-60
2023/12/26 08:14:49;;;;;;;11.20;8.17;;;10.60;99.90;;;;;;4192947;28;20443;-60
2023/12/26 08:16:50;;;;;;;10.23;7.80;;;10.50;99.90;;;;;;4191652;28;20040;-60
2023/12/26 08:18:54;;;;;;;10.87;7.87;;;10.60;99.90;;;;;;4191741;28;20451;-61
2023/12/26 08:20:55;;;;;;;12.53;7.60;;;10.90;99.90;;;;;;4191882;28;20037;-61
2023/12/26 08:22:56;;;;;;;10.10;7.27;;;11.20;99.90;;;;;;4191728;28;20459;-60
2023/12/26 08:24:57;;;;;;;9.67;7.50;;;11.40;99.90;;;;;;4191677;28;20082;-61
2023/12/26 08:26:58;;;;;;;10.47;7.50;;;11.70;99.90;;;;;;4194197;28;20146;-60
2023/12/26 08:29:00;;;;;;;11.30;7.87;;;11.90;99.90;;;;;;4195493;28;20093;-60
2023/12/26 08:31:02;;;;;;;10.07;6.90;;;12.00;99.90;;;;;;4194622;28;20033;-60
2023/12/26 08:33:04;;;;;;;7.87;6.03;;;11.90;99.90;;;;;;4195367;28;20048;-60
2023/12/26 08:35:05;;;;;;;10.27;7.63;;;11.80;99.90;;;;;;4195000;28;20110;-60
2023/12/26 08:37:06;;;;;;;10.87;7.73;;;11.90;99.90;;;;;;4195233;28;20094;-59
2023/12/26 08:39:08;;;;;;;9.90;6.70;;;11.90;99.90;;;;;;4193941;28;20118;-59
2023/12/26 08:41:10;;;;;;;9.00;6.00;;;11.80;99.90;;;;;;4195822;28;20102;-60
2023/12/26 08:43:11;;;;;;;8.90;6.27;;;11.80;99.90;;;;;;4194064;28;20067;-59
2023/12/26 08:45:12;;;;;;;6.80;4.93;;;11.70;99.90;;;;;;4196041;28;20546;-60
2023/12/26 08:47:13;;;;;;;7.13;4.97;;;11.50;99.90;;;;;;4194526;28;20109;-59
2023/12/26 08:49:14;;;;;;;6.63;4.73;;;11.10;99.90;;;;;;4195542;28;20033;-59
2023/12/26 08:51:16;;;;;;;7.73;4.60;;;10.90;99.90;;;;;;4195149;28;20017;-60
2023/12/26 08:53:17;;;;;;;7.87;4.63;;;10.70;99.90;;;;;;4194673;28;20036;-59
2023/12/26 08:55:19;;;;;;;6.43;3.90;;;10.50;99.90;;;;;;4194749;28;21066;-59
2023/12/26 08:57:21;;;;;;;4.53;3.33;;;10.40;99.90;;;;;;4194548;28;20048;-59
2023/12/26 08:59:22;;;;;;;5.57;3.90;;;10.30;99.90;;;;;;4194727;28;20036;-59
2023/12/26 09:01:23;;;;;;;5.73;4.07;;;10.20;99.90;;;;;;4194843;28;20458;-60
2023/12/26 09:03:24;;;;;;;7.00;4.60;;;10.30;99.90;;;;;;4194699;28;20044;-59
2023/12/26 09:05:25;;;;;;;10.80;6.83;;;10.30;99.90;;;;;;4194452;28;20032;-60
2023/12/26 09:07:27;;;;;;;9.60;6.40;;;10.60;99.90;;;;;;4194771;28;20048;-60
2023/12/26 09:09:28;;;;;;;6.63;5.03;;;10.80;99.90;;;;;;4194301;28;20071;-60
2023/12/26 09:11:29;;;;;;;11.03;4.80;;;10.80;99.90;;;;;;4194968;28;20470;-60
2023/12/26 09:13:30;;;;;;;8.17;5.53;;;10.90;99.90;;;;;;4193867;28;20407;-60
2023/12/26 09:15:31;;;;;;;10.03;5.30;;;11.00;99.90;;;;;;4194820;28;20044;-60
2023/12/26 09:17:33;;;;;;;7.60;4.73;;;11.10;99.90;;;;;;4194346;28;20066;-60
2023/12/26 09:19:34;;;;;;;6.63;4.63;;;11.20;99.90;;;;;;4194009;28;20044;-60
2023/12/26 09:21:35;;;;;;;9.80;4.73;;;11.20;99.90;;;;;;4194504;28;20484;-60
2023/12/26 09:23:37;;;;;;;6.10;4.43;;;11.30;99.90;;;;;;4194443;28;20102;-57
2023/12/26 09:25:38;;;;;;;6.00;4.30;;;11.40;99.90;;;;;;4194743;28;20036;-60
2023/12/26 09:27:42;;;;;;;7.07;4.33;;;11.50;99.90;;;;;;4194699;28;20086;-60
2023/12/26 09:29:43;;;;;;;6.53;4.50;;;11.70;99.90;;;;;;4194326;28;20062;-60
2023/12/26 09:31:44;;;;;;;9.83;5.00;;;11.60;99.90;;;;;;4194325;28;20786;-60
2023/12/26 09:33:45;;;;;;;8.47;5.23;;;11.60;99.90;;;;;;4193803;28;20040;-60
2023/12/26 09:35:47;;;;;;;6.87;5.03;;;11.70;99.90;;;;;;4193745;28;20040;-60
2023/12/26 09:37:49;;;;;;;9.03;5.10;;;11.80;99.90;;;;;;4193858;28;20198;-60
2023/12/26 09:39:50;;;;;;;9.17;4.47;;;11.80;99.90;;;;;;4193178;28;20049;-60
2023/12/26 09:41:55;;;;;;;9.43;5.20;;;11.80;99.90;;;;;;4194609;28;20044;-61
2023/12/26 09:43:57;;;;;;;9.13;4.33;;;11.80;99.90;;;;;;4194002;28;20041;-60
2023/12/26 09:45:58;;;;;;;10.37;4.80;;;11.80;99.90;;;;;;4195030;28;20044;-61
2023/12/26 09:48:00;;;;;;;11.63;4.57;;;11.70;99.90;;;;;;4191648;28;20048;-61
2023/12/26 09:50:01;;;;;;;5.87;4.30;;;11.80;99.90;;;;;;4194622;28;20020;-60
2023/12/26 09:52:05;;;;;;;7.57;5.30;;;12.00;99.90;;;;;;4193750;28;20102;-60
2023/12/26 09:54:08;;;;;;;6.83;4.63;;;12.10;99.90;;;;;;4194028;28;20048;-61
2023/12/26 09:56:09;;;;;;;10.17;5.03;;;12.10;99.90;;;;;;4194035;28;20086;-61
2023/12/26 09:58:11;;;;;;;10.20;4.93;;;12.20;99.90;;;;;;4193257;28;20044;-60
2023/12/26 10:00:13;;;;;;;10.43;5.47;;;12.20;99.90;;;;;;4193931;28;20093;-60
2023/12/26 10:02:14;;;;;;;9.17;6.27;;;12.10;99.90;;;;;;4193377;28;20165;-60
2023/12/26 10:04:15;;;;;;;7.80;5.87;;;12.10;99.90;;;;;;4193715;28;20040;-60
2023/12/26 10:06:17;;;;;;;7.03;5.27;;;12.10;99.90;;;;;;4193394;28;20041;-59
2023/12/26 10:08:18;;;;;;;8.17;4.83;;;12.20;99.90;;;;;;4193583;28;20401;-60
2023/12/26 10:10:20;;;;;;;10.03;4.60;;;12.20;99.90;;;;;;4191861;28;20070;-60
2023/12/26 10:12:27;;;;;;;8.37;4.43;;;12.30;99.90;;;;;;4194272;28;20438;-61
2023/12/26 10:14:30;;;;;;;6.83;3.07;;;12.40;99.90;;;;;;4193121;28;20036;-61
2023/12/26 10:16:34;;;;;;;7.80;2.60;;;12.50;99.90;;;;;;4194307;28;20465;-60
2023/12/26 10:18:36;;;;;;;4.87;2.50;;;12.40;99.90;;;;;;4192446;28;20085;-60
2023/12/26 10:20:37;;;;;;;7.57;2.60;;;12.30;99.90;;;;;;4194214;28;20032;-60
2023/12/26 10:22:41;;;;;;;9.77;2.70;;;12.20;99.90;;;;;;4192583;28;20435;-60
2023/12/26 10:24:43;;;;;;;6.73;2.80;;;12.10;99.90;;;;;;4194096;28;20082;-59
2023/12/26 10:26:44;;;;;;;6.17;3.13;;;12.00;99.90;;;;;;4192775;28;20082;-60
2023/12/26 10:28:46;;;;;;;7.63;3.37;;;12.00;99.90;;;;;;4192179;28;20516;-60
2023/12/26 10:30:47;;;;;;;5.63;3.13;;;12.10;99.90;;;;;;4192849;28;20074;-60
2023/12/26 10:33:03;;;;;;;6.40;3.27;;;12.20;99.90;;;;;;4193405;28;20032;-60
2023/12/26 10:35:14;;;;;;;8.07;3.60;;;12.20;99.90;;;;;;4193466;28;20086;-60